createdAt,value
2019-05-17T00:00:57.300Z,77.03
2019-05-17T00:01:57.662Z,78.08
2019-05-17T00:02:57.297Z,78.17
2019-05-17T00:03:58.543Z,77.89
2019-05-17T00:04:58.970Z,77.79
2019-05-17T00:05:59.619Z,77.41
2019-05-17T00:07:02.577Z,77.98
2019-05-17T00:08:02.236Z,78.08
2019-05-17T00:09:01.735Z,77.98
2019-05-17T00:10:02.382Z,78.17
2019-05-17T00:11:02.792Z,77.22
2019-05-17T00:12:02.907Z,75.51
2019-05-17T00:13:03.293Z,75.38
2019-05-17T00:14:06.154Z,72.53
2019-05-17T00:15:06.928Z,71.48
2019-05-17T00:16:07.166Z,70.35
2019-05-17T00:17:06.616Z,69.4
2019-05-17T00:18:06.810Z,69.34
2019-05-17T00:19:07.551Z,68.58
2019-05-17T00:20:08.030Z,68.29
2019-05-17T00:21:08.142Z,68.39
2019-05-17T00:22:08.528Z,68.67
2019-05-17T00:23:08.756Z,68.54
2019-05-17T00:24:12.269Z,68.01
2019-05-17T00:25:12.491Z,67.79
2019-05-17T00:26:12.472Z,68.35
2019-05-17T00:27:12.172Z,69.02
2019-05-17T00:28:12.766Z,68.44
2019-05-17T00:29:13.169Z,68.26
2019-05-17T00:30:13.984Z,68.35
2019-05-17T00:31:14.478Z,67.69
2019-05-17T00:32:17.055Z,67.5
2019-05-17T00:33:16.907Z,67.5
2019-05-17T00:34:16.758Z,67.21
2019-05-17T00:35:17.921Z,68.16
2019-05-17T00:36:18.061Z,70.63
2019-05-17T00:37:18.758Z,71.48
2019-05-17T00:38:19.118Z,71.67
2019-05-17T00:39:21.985Z,71.77
2019-05-17T00:40:22.294Z,72.15
2019-05-17T00:41:23.151Z,72.15
2019-05-17T00:42:22.607Z,71.3
2019-05-17T00:43:22.609Z,71.39
2019-05-17T00:44:22.254Z,70.63
2019-05-17T00:45:23.238Z,69.21
2019-05-17T00:46:22.916Z,68.92
2019-05-17T00:47:23.301Z,68.73
2019-05-17T00:48:26.332Z,69.3
2019-05-17T00:49:26.392Z,70.06
2019-05-17T00:50:27.470Z,70.06
2019-05-17T00:51:27.356Z,69.21
2019-05-17T00:52:27.579Z,69.68
2019-05-17T00:53:28.256Z,71.3
2019-05-17T00:54:28.901Z,72.44
2019-05-17T00:55:29.247Z,71.67
2019-05-17T00:56:31.782Z,71.77
2019-05-17T00:57:32.629Z,72.34
2019-05-17T00:58:31.868Z,73.96
2019-05-17T00:59:31.601Z,75.28
2019-05-17T01:00:33.129Z,75.76
2019-05-17T01:01:33.115Z,77.14
2019-05-17T01:02:33.211Z,76.95
2019-05-17T01:03:33.322Z,77.24
2019-05-17T01:04:34.062Z,76.2
2019-05-17T01:05:36.652Z,75.34
2019-05-17T01:06:37.499Z,74.39
2019-05-17T01:07:37.591Z,75.15
2019-05-17T01:08:37.468Z,74.39
2019-05-17T01:09:37.855Z,74.3
2019-05-17T01:10:38.246Z,74.49
2019-05-17T01:11:38.361Z,75.15
2019-05-17T01:12:38.469Z,75.05
2019-05-17T01:13:38.880Z,74.96
2019-05-17T01:14:42.378Z,74.2
2019-05-17T01:15:42.534Z,74.3
2019-05-17T01:16:42.392Z,74.49
2019-05-17T01:17:42.504Z,75.15
2019-05-17T01:18:42.903Z,73.72
2019-05-17T01:19:43.867Z,72.68
2019-05-17T01:20:47.279Z,72.02
2019-05-17T01:21:47.413Z,71.17
2019-05-17T01:22:47.370Z,70.5
2019-05-17T01:23:46.741Z,70.59
2019-05-17T01:24:47.322Z,71.26
2019-05-17T01:25:48.108Z,71.45
2019-05-17T01:26:48.304Z,72.21
2019-05-17T01:27:48.699Z,72.3
2019-05-17T01:28:49.119Z,72.21
2019-05-17T01:29:52.146Z,72.4
2019-05-17T01:30:51.912Z,73.44
2019-05-17T01:31:52.144Z,73.92
2019-05-17T01:32:52.836Z,73.25
2019-05-17T01:33:52.946Z,72.49
2019-05-17T01:34:53.584Z,70.4
2019-05-17T01:35:54.396Z,69.84
2019-05-17T01:36:56.864Z,70.5
2019-05-17T01:37:56.589Z,71.64
2019-05-17T01:38:57.698Z,71.07
2019-05-17T01:39:57.974Z,69.84
2019-05-17T01:40:58.968Z,68.79
2019-05-17T01:41:59.724Z,67.46
2019-05-17T01:43:00.870Z,67.85
2019-05-17T01:44:02.497Z,68.04
2019-05-17T01:45:02.331Z,65.95
2019-05-17T01:46:02.703Z,65.37
2019-05-17T01:47:03.116Z,62.82
2019-05-17T01:48:04.193Z,61.49
2019-05-17T01:49:06.841Z,60.63
2019-05-17T01:50:06.917Z,58.92
2019-05-17T01:51:07.464Z,59.02
2019-05-17T01:52:07.597Z,58.17
2019-05-17T01:53:07.728Z,57.59
2019-05-17T01:54:07.833Z,57.59
2019-05-17T01:55:08.479Z,56.17
2019-05-17T01:56:08.863Z,56.08
2019-05-17T01:57:09.203Z,55.98
2019-05-17T01:58:12.678Z,55.7
2019-05-17T01:59:12.116Z,55.41
2019-05-17T02:00:11.657Z,55.6
2019-05-17T02:01:13.185Z,55.98
2019-05-17T02:02:13.159Z,56.65
2019-05-17T02:03:13.838Z,56.65
2019-05-17T02:04:14.322Z,57.21
2019-05-17T02:05:17.240Z,58.36
2019-05-17T02:06:16.499Z,59.02
2019-05-17T02:07:17.249Z,59.46
2019-05-17T02:08:17.047Z,60.06
2019-05-17T02:09:32.454Z,60.5
2019-05-17T02:10:17.765Z,61.01
2019-05-17T02:11:18.503Z,60.63
2019-05-17T02:12:18.921Z,60.35
2019-05-17T02:13:22.015Z,60.44
2019-05-17T02:14:21.858Z,61.17
2019-05-17T02:15:21.742Z,60.92
2019-05-17T02:16:22.079Z,61.68
2019-05-17T02:17:22.720Z,62.15
2019-05-17T02:18:22.699Z,62.91
2019-05-17T02:19:23.036Z,63.95
2019-05-17T02:20:23.441Z,66.33
2019-05-17T02:21:24.034Z,69.17
2019-05-17T02:22:27.065Z,70.59
2019-05-17T02:23:26.996Z,70.21
2019-05-17T02:24:27.477Z,71.26
2019-05-17T02:25:27.214Z,71.55
2019-05-17T02:26:27.005Z,71.26
2019-05-17T02:27:35.553Z,71.45
2019-05-17T02:28:28.134Z,72.68
2019-05-17T02:29:28.264Z,72.97
2019-05-17T02:30:29.191Z,73.54
2019-05-17T02:31:32.785Z,72.97
2019-05-17T02:32:29.674Z,73.54
2019-05-17T02:33:33.118Z,73.44
2019-05-17T02:34:33.426Z,75.24
2019-05-17T02:35:33.591Z,75.78
2019-05-17T02:36:33.215Z,75.31
2019-05-17T02:37:33.371Z,75.02
2019-05-17T02:38:33.165Z,74.92
2019-05-17T02:39:32.899Z,74.64
2019-05-17T02:40:33.889Z,75.59
2019-05-17T02:41:33.756Z,74.16
2019-05-17T02:42:34.668Z,71.7
2019-05-17T02:43:38.904Z,71.32
2019-05-17T02:44:39.226Z,71.22
2019-05-17T02:45:38.461Z,71.03
2019-05-17T02:46:39.104Z,71.41
2019-05-17T02:47:39.146Z,71.6
2019-05-17T02:48:42.508Z,71.8
2019-05-17T02:49:42.422Z,71.32
2019-05-17T02:50:43.137Z,72.27
2019-05-17T02:51:43.078Z,71.98
2019-05-17T02:52:43.467Z,72.55
2019-05-17T02:53:43.017Z,72.17
2019-05-17T02:54:43.648Z,73.22
2019-05-17T02:55:43.789Z,73.41
2019-05-17T02:56:43.918Z,72.74
2019-05-17T02:57:44.059Z,72.36
2019-05-17T02:58:44.248Z,72.64
2019-05-17T02:59:48.524Z,72.84
2019-05-17T03:00:52.902Z,73.03
2019-05-17T03:01:52.471Z,73.79
2019-05-17T03:02:48.916Z,74.16
2019-05-17T03:03:52.588Z,74.73
2019-05-17T03:04:48.535Z,74.45
2019-05-17T03:05:48.801Z,73.22
2019-05-17T03:06:52.957Z,72.64
2019-05-17T03:07:52.749Z,72.45
2019-05-17T03:08:52.403Z,71.6
2019-05-17T03:09:53.394Z,72.08
2019-05-17T03:10:53.397Z,71.6
2019-05-17T03:11:56.173Z,71.51
2019-05-17T03:12:53.181Z,71.41
2019-05-17T03:13:53.376Z,70.37
2019-05-17T03:14:54.192Z,69.33
2019-05-17T03:15:58.174Z,68
2019-05-17T03:16:55.252Z,66.58
2019-05-17T03:17:59.117Z,64.59
2019-05-17T03:18:58.614Z,64.11
2019-05-17T03:19:58.584Z,64.78
2019-05-17T03:20:58.013Z,64.87
2019-05-17T03:22:04.059Z,64.01
2019-05-17T03:22:58.814Z,63.07
2019-05-17T03:24:02.855Z,61.46
2019-05-17T03:25:02.853Z,60.41
2019-05-17T03:26:03.420Z,59.27
2019-05-17T03:27:02.969Z,58.89
2019-05-17T03:28:02.838Z,57.66
2019-05-17T03:29:03.185Z,56.99
2019-05-17T03:30:03.997Z,56.9
2019-05-17T03:31:07.543Z,57.47
2019-05-17T03:32:08.264Z,57.38
2019-05-17T03:33:06.829Z,57.57
2019-05-17T03:34:06.193Z,58.89
2019-05-17T03:35:16.323Z,59.56
2019-05-17T03:36:16.641Z,59.56
2019-05-17T03:37:25.830Z,58.89
2019-05-17T03:38:22.683Z,58.7
2019-05-17T03:39:18.556Z,58.8
2019-05-17T03:41:42.833Z,59.08
2019-05-17T03:42:42.803Z,58.61
2019-05-17T03:43:45.760Z,58.7
2019-05-17T03:44:43.780Z,58.89
2019-05-17T03:45:42.896Z,58.89
2019-05-17T03:46:43.429Z,58.51
2019-05-17T03:47:44.818Z,58.8
2019-05-17T03:48:44.334Z,59.46
2019-05-17T03:49:49.120Z,60.6
2019-05-17T03:50:48.917Z,61.46
2019-05-17T03:51:48.015Z,61.93
2019-05-17T03:52:53.248Z,62.24
2019-05-17T03:53:52.898Z,62.21
2019-05-17T03:54:48.409Z,62.4
2019-05-17T03:55:49.101Z,62.5
2019-05-17T03:56:49.641Z,61.93
2019-05-17T03:57:53.180Z,62.05
2019-05-17T03:58:53.023Z,61.3
2019-05-17T03:59:52.530Z,61.49
2019-05-17T04:00:53.565Z,61.3
2019-05-17T04:01:54.300Z,61.3
2019-05-17T04:02:54.475Z,61.3
2019-05-17T04:03:58.366Z,61.39
2019-05-17T04:04:58.427Z,61.58
2019-05-17T04:05:58.412Z,61.2
2019-05-17T04:06:57.918Z,60.06
2019-05-17T04:07:59.020Z,59.75
2019-05-17T04:08:58.066Z,58.64
2019-05-17T04:09:58.543Z,58.83
2019-05-17T04:11:15.093Z,59.59
2019-05-17T04:12:02.636Z,60.35
2019-05-17T04:12:59.512Z,60.35
2019-05-17T04:14:02.884Z,60.63
2019-05-17T04:15:03.106Z,60.35
2019-05-17T04:16:04.431Z,60.82
2019-05-17T04:17:02.993Z,62.43
2019-05-17T04:18:04.076Z,62.91
2019-05-17T04:19:03.015Z,63.67
2019-05-17T04:20:03.233Z,63.48
2019-05-17T04:21:03.312Z,63.29
2019-05-17T04:22:03.672Z,62.21
2019-05-17T04:23:04.219Z,59.84
2019-05-17T04:24:04.171Z,59.84
2019-05-17T04:25:08.167Z,58.7
2019-05-17T04:26:05.230Z,58.17
2019-05-17T04:27:09.146Z,57.59
2019-05-17T04:28:08.054Z,57.38
2019-05-17T04:29:09.111Z,57.21
2019-05-17T04:30:12.331Z,58.04
2019-05-17T04:31:08.172Z,57.88
2019-05-17T04:32:12.660Z,58.14
2019-05-17T04:33:12.632Z,58.17
2019-05-17T04:34:13.198Z,58.64
2019-05-17T04:35:12.904Z,58.83
2019-05-17T04:36:13.053Z,58.83
2019-05-17T04:37:13.019Z,57.31
2019-05-17T04:38:12.732Z,57.79
2019-05-17T04:39:13.300Z,57.31
2019-05-17T04:40:14.051Z,57.88
2019-05-17T04:41:13.366Z,58.17
2019-05-17T04:42:13.911Z,58.45
2019-05-17T04:43:14.629Z,59.3
2019-05-17T04:44:18.436Z,60.44
2019-05-17T04:45:18.439Z,61.68
2019-05-17T04:46:18.271Z,61.77
2019-05-17T04:47:22.659Z,61.96
2019-05-17T04:48:19.140Z,62.15
2019-05-17T04:49:19.959Z,61.68
2019-05-17T04:50:23.024Z,60.82
2019-05-17T04:51:23.194Z,60.63
2019-05-17T04:52:22.878Z,60.44
2019-05-17T04:53:23.418Z,60.73
2019-05-17T04:54:23.246Z,60.53
2019-05-17T04:55:24.224Z,60.53
2019-05-17T04:56:27.945Z,60.44
2019-05-17T04:57:28.226Z,59.97
2019-05-17T04:58:28.569Z,60.44
2019-05-17T04:59:33.336Z,60.44
2019-05-17T05:00:27.422Z,60.53
2019-05-17T05:01:32.743Z,60.44
2019-05-17T05:02:28.945Z,60.53
2019-05-17T05:03:32.395Z,60.82
2019-05-17T05:04:29.384Z,61.11
2019-05-17T05:05:32.767Z,61.49
2019-05-17T05:06:32.763Z,61.68
2019-05-17T05:07:33.305Z,62.15
2019-05-17T05:08:32.972Z,62.18
2019-05-17T05:09:32.249Z,62.08
2019-05-17T05:10:33.270Z,62.56
2019-05-17T05:11:33.098Z,63.51
2019-05-17T05:12:33.669Z,64.08
2019-05-17T05:13:33.703Z,64.17
2019-05-17T05:14:33.873Z,64.65
2019-05-17T05:15:34.294Z,65.22
2019-05-17T05:16:37.485Z,65.6
2019-05-17T05:17:38.310Z,65.22
2019-05-17T05:18:37.991Z,65.6
2019-05-17T05:19:38.295Z,66.27
2019-05-17T05:20:38.154Z,66.27
2019-05-17T05:21:37.961Z,66.93
2019-05-17T05:22:38.727Z,67.21
2019-05-17T05:23:38.410Z,68.35
2019-05-17T05:24:38.518Z,70.35
2019-05-17T05:25:38.917Z,71.2
2019-05-17T05:26:39.052Z,71.3
2019-05-17T05:27:39.446Z,70.35
2019-05-17T05:28:41.906Z,69.78
2019-05-17T05:29:41.562Z,69.24
2019-05-17T05:30:42.345Z,69.71
2019-05-17T05:31:42.865Z,69.62
2019-05-17T05:32:43.062Z,69.91
2019-05-17T05:33:43.173Z,70.67
2019-05-17T05:34:46.250Z,71.43
2019-05-17T05:35:44.501Z,70.86
2019-05-17T05:36:47.100Z,71.23
2019-05-17T05:37:47.771Z,71.23
2019-05-17T05:38:47.791Z,70.1
2019-05-17T05:39:47.492Z,69.91
2019-05-17T05:40:47.978Z,69.15
2019-05-17T05:41:48.402Z,69.91
2019-05-17T05:42:48.625Z,71.71
2019-05-17T05:43:49.029Z,72.56
2019-05-17T05:44:49.522Z,73.71
2019-05-17T05:45:49.986Z,74.08
2019-05-17T05:46:51.458Z,73.71
2019-05-17T05:47:52.139Z,71.52
2019-05-17T05:48:52.178Z,71.62
2019-05-17T05:49:52.080Z,71.33
2019-05-17T05:50:52.793Z,70.29
2019-05-17T05:51:53.078Z,69.81
2019-05-17T05:52:53.481Z,69.53
2019-05-17T05:53:53.938Z,68.48
2019-05-17T05:54:54.598Z,68.19
2019-05-17T05:55:57.399Z,68.96
2019-05-17T05:56:57.727Z,68.71
2019-05-17T05:57:57.751Z,68.71
2019-05-17T05:58:57.899Z,68.99
2019-05-17T05:59:58.344Z,70.51
2019-05-17T06:00:59.013Z,70.99
2019-05-17T06:02:01.732Z,72.6
2019-05-17T06:03:04.020Z,72.7
2019-05-17T06:04:02.671Z,72.22
2019-05-17T06:05:02.235Z,70
2019-05-17T06:06:02.487Z,69.66
2019-05-17T06:07:03.262Z,68.96
2019-05-17T06:08:03.215Z,68.1
2019-05-17T06:09:04.308Z,66.3
2019-05-17T06:10:04.511Z,63.92
2019-05-17T06:11:07.439Z,62.59
2019-05-17T06:12:20.680Z,62.12
2019-05-17T06:13:08.535Z,61.77
2019-05-17T06:14:07.902Z,62.53
2019-05-17T06:15:08.464Z,63.1
2019-05-17T06:16:08.144Z,64.14
2019-05-17T06:17:08.494Z,63.95
2019-05-17T06:18:09.346Z,63.1
2019-05-17T06:19:11.630Z,62.72
2019-05-17T06:20:11.822Z,63.67
2019-05-17T06:21:12.164Z,64.14
2019-05-17T06:22:12.108Z,65.67
2019-05-17T06:23:12.618Z,68.13
2019-05-17T06:24:12.502Z,69.18
2019-05-17T06:25:15.499Z,69.94
2019-05-17T06:26:13.836Z,69.85
2019-05-17T06:27:13.963Z,68.71
2019-05-17T06:28:14.077Z,69.27
2019-05-17T06:29:17.346Z,70.13
2019-05-17T06:30:17.727Z,70.04
2019-05-17T06:31:16.143Z,71.41
2019-05-17T06:32:17.185Z,72.03
2019-05-17T06:33:30.020Z,72.74
2019-05-17T06:34:17.287Z,74.16
2019-05-17T06:35:18.494Z,75.3
2019-05-17T06:36:21.610Z,76.25
2019-05-17T06:37:22.329Z,77.11
2019-05-17T06:38:22.399Z,79.01
2019-05-17T06:39:22.376Z,79.01
2019-05-17T06:40:21.918Z,83.1
2019-05-17T06:41:22.346Z,83.67
2019-05-17T06:42:35.971Z,81.38
2019-05-17T06:43:23.710Z,78.91
2019-05-17T06:44:27.111Z,77.49
2019-05-17T06:45:24.531Z,77.58
2019-05-17T06:46:27.586Z,79.49
2019-05-17T06:47:27.835Z,81.62
2019-05-17T06:48:28.111Z,83.9
2019-05-17T06:49:28.006Z,87.57
2019-05-17T06:50:28.896Z,85.47
2019-05-17T06:51:28.300Z,80.91
2019-05-17T06:52:32.489Z,79.3
2019-05-17T06:53:29.568Z,78.16
2019-05-17T06:54:30.166Z,77.3
2019-05-17T06:55:31.429Z,76.12
2019-05-17T06:56:32.176Z,75.21
2019-05-17T06:57:32.604Z,74.16
2019-05-17T06:58:33.076Z,74.35
2019-05-17T06:59:33.481Z,76.44
2019-05-17T07:00:36.084Z,76.63
2019-05-17T07:01:34.925Z,80.53
2019-05-17T07:02:36.440Z,80.53
2019-05-17T07:03:35.589Z,80.66
2019-05-17T07:04:36.004Z,83.04
2019-05-17T07:05:36.402Z,81.81
2019-05-17T07:06:36.836Z,81.9
2019-05-17T07:07:37.707Z,84.85
2019-05-17T07:08:40.132Z,84.76
2019-05-17T07:09:41.311Z,86.76
2019-05-17T07:10:39.885Z,88.04
2019-05-17T07:11:40.071Z,89.18
2019-05-17T07:12:53.996Z,90.32
2019-05-17T07:13:40.948Z,91.75
2019-05-17T07:14:41.364Z,93.55
2019-05-17T07:15:53.080Z,90.75
2019-05-17T07:16:44.813Z,92.08
2019-05-17T07:17:45.409Z,91.13
2019-05-17T07:18:45.261Z,92.74
2019-05-17T07:19:45.636Z,97.65
2019-05-17T07:20:45.324Z,98.51
2019-05-17T07:21:45.849Z,98.99
2019-05-17T07:22:46.739Z,99.99
2019-05-17T07:23:47.297Z,99.99
2019-05-17T07:24:50.191Z,99.99
2019-05-17T07:25:50.437Z,99.99
2019-05-17T07:26:49.913Z,99.99
2019-05-17T07:27:52.223Z,99.99
2019-05-17T07:28:51.228Z,99.99
2019-05-17T07:29:52.338Z,99.99
2019-05-17T07:30:55.806Z,99.99
2019-05-17T07:31:55.326Z,99.99
2019-05-17T07:32:55.336Z,99.99
2019-05-17T07:33:56.200Z,99.99
2019-05-17T07:34:56.025Z,99.99
2019-05-17T07:35:55.566Z,99.99
2019-05-17T07:36:55.984Z,99.99
2019-05-17T07:37:56.673Z,99.99
2019-05-17T07:38:57.029Z,99.99
2019-05-17T07:40:11.019Z,99.99
2019-05-17T07:40:59.505Z,99.99
2019-05-17T07:41:59.947Z,99.99
2019-05-17T07:43:15.365Z,99.99
2019-05-17T07:44:00.377Z,99.99
2019-05-17T07:45:01.316Z,99.99
2019-05-17T07:46:00.999Z,99.99
2019-05-17T07:47:01.178Z,99.99
2019-05-17T07:48:01.520Z,99.99
2019-05-17T07:49:02.287Z,99.99
2019-05-17T07:50:03.034Z,99.99
2019-05-17T07:51:04.680Z,99.99
2019-05-17T07:52:06.212Z,99.99
2019-05-17T07:53:06.204Z,99.99
2019-05-17T07:54:05.088Z,99.99
2019-05-17T07:55:10.693Z,99.99
2019-05-17T07:56:05.281Z,99.99
2019-05-17T07:57:05.684Z,99.99
2019-05-17T07:58:06.105Z,99.99
2019-05-17T07:59:06.451Z,99.99
2019-05-17T08:00:06.592Z,99.99
2019-05-17T08:01:09.888Z,99.99
2019-05-17T08:02:07.455Z,99.99
2019-05-17T08:03:12.591Z,99.99
2019-05-17T08:04:09.956Z,99.99
2019-05-17T08:05:10.000Z,99.99
2019-05-17T08:06:10.802Z,99.99
2019-05-17T08:07:11.208Z,97.47
2019-05-17T08:08:10.974Z,92.81
2019-05-17T08:09:13.694Z,91.42
2019-05-17T08:10:12.542Z,87.38
2019-05-17T08:11:16.038Z,82.42
2019-05-17T08:12:16.389Z,80.06
2019-05-17T08:13:33.631Z,73.71
2019-05-17T08:14:26.618Z,72.59
2019-05-17T08:15:16.369Z,75.76
2019-05-17T08:16:16.380Z,74.61
2019-05-17T08:17:16.819Z,80.58
2019-05-17T08:18:16.948Z,80.77
2019-05-17T08:19:17.237Z,79.1
2019-05-17T08:20:20.330Z,82.14
2019-05-17T08:21:19.846Z,85.84
2019-05-17T08:22:20.131Z,81.04
2019-05-17T08:23:20.798Z,81.17
2019-05-17T08:24:20.952Z,79.92
2019-05-17T08:25:21.816Z,78.58
2019-05-17T08:26:22.237Z,79.82
2019-05-17T08:27:25.562Z,80.4
2019-05-17T08:28:26.834Z,81.09
2019-05-17T08:29:25.595Z,86.95
2019-05-17T08:30:26.389Z,89.6
2019-05-17T08:31:25.881Z,92.48
2019-05-17T08:32:26.819Z,91.56
2019-05-17T08:33:26.490Z,97.91
2019-05-17T08:34:26.621Z,97.62
2019-05-17T08:35:26.766Z,95.7
2019-05-17T08:36:29.784Z,89.83
2019-05-17T08:37:30.131Z,94.01
2019-05-17T08:38:30.490Z,93.1
2019-05-17T08:39:31.253Z,93.1
2019-05-17T08:40:31.649Z,92.63
2019-05-17T08:41:32.537Z,91.42
2019-05-17T08:42:33.135Z,85.99
2019-05-17T08:43:47.063Z,82.96
2019-05-17T08:44:35.655Z,80.69
2019-05-17T08:45:35.145Z,78.83
2019-05-17T08:46:36.073Z,77.67
2019-05-17T08:47:36.628Z,76.26
2019-05-17T08:48:36.287Z,76.78
2019-05-17T08:49:36.825Z,72.68
2019-05-17T08:50:40.216Z,70.7
2019-05-17T08:51:39.634Z,67.65
2019-05-17T08:52:40.199Z,66.75
2019-05-17T08:53:39.853Z,63.57
2019-05-17T08:54:42.619Z,62.63
2019-05-17T08:55:40.779Z,63.21
2019-05-17T08:56:40.481Z,63.28
2019-05-17T08:57:40.416Z,64.21
2019-05-17T08:58:40.887Z,63.09
2019-05-17T08:59:41.165Z,64.08
2019-05-17T09:00:42.201Z,62.63
2019-05-17T09:01:46.268Z,61.54
2019-05-17T09:02:42.400Z,63.63
2019-05-17T09:03:42.691Z,63.21
2019-05-17T09:04:46.001Z,63.41
2019-05-17T09:05:47.147Z,64.76
2019-05-17T09:06:45.009Z,63.31
2019-05-17T09:07:46.134Z,63.15
2019-05-17T09:08:46.169Z,62.12
2019-05-17T09:09:46.170Z,64.18
2019-05-17T09:10:50.346Z,65.14
2019-05-17T09:11:50.098Z,64.47
2019-05-17T09:12:50.076Z,65.11
2019-05-17T09:14:02.744Z,66.11
2019-05-17T09:14:49.587Z,65.69
2019-05-17T09:15:49.381Z,64.08
2019-05-17T09:16:50.421Z,63.89
2019-05-17T09:17:50.025Z,62.25
2019-05-17T09:18:51.877Z,63.44
2019-05-17T09:19:52.591Z,64.05
2019-05-17T09:20:51.582Z,62.99
2019-05-17T09:21:52.638Z,60.41
2019-05-17T09:22:53.028Z,59.55
2019-05-17T09:23:55.670Z,58.68
2019-05-17T09:24:55.575Z,59.38
2019-05-17T09:25:55.401Z,58.12
2019-05-17T09:26:54.823Z,57.29
2019-05-17T09:27:55.454Z,56.54
2019-05-17T09:28:56.914Z,54.83
2019-05-17T09:29:56.416Z,55.53
2019-05-17T09:30:56.986Z,53.57
2019-05-17T09:31:59.790Z,55.43
2019-05-17T09:33:00.252Z,55.53
2019-05-17T09:34:00.345Z,53.04
2019-05-17T09:35:00.295Z,51.9
2019-05-17T09:36:01.141Z,51.84
2019-05-17T09:37:03.283Z,52.03
2019-05-17T09:38:02.676Z,49.99
2019-05-17T09:39:06.613Z,50.77
2019-05-17T09:40:05.871Z,52.34
2019-05-17T09:41:05.638Z,54
2019-05-17T09:42:06.070Z,55.55
2019-05-17T09:43:06.248Z,54.03
2019-05-17T09:44:20.530Z,54.83
2019-05-17T09:45:09.214Z,53.57
2019-05-17T09:46:10.383Z,54.35
2019-05-17T09:47:10.061Z,54.77
2019-05-17T09:48:10.191Z,55.04
2019-05-17T09:49:10.343Z,54.94
2019-05-17T09:50:10.304Z,56.2
2019-05-17T09:51:10.684Z,56.77
2019-05-17T09:52:11.413Z,56.46
2019-05-17T09:53:11.552Z,55.2
2019-05-17T09:54:12.832Z,55.49
2019-05-17T09:55:15.199Z,57.14
2019-05-17T09:56:15.179Z,58.91
2019-05-17T09:57:15.567Z,57.65
2019-05-17T09:58:15.987Z,58.42
2019-05-17T09:59:16.736Z,59.52
2019-05-17T10:00:16.732Z,58.65
2019-05-17T10:01:19.589Z,58.17
2019-05-17T10:02:20.297Z,59.52
2019-05-17T10:03:23.686Z,58
2019-05-17T10:04:20.658Z,57.04
2019-05-17T10:05:22.414Z,57.64
2019-05-17T10:06:22.627Z,55.71
2019-05-17T10:07:22.060Z,54.68
2019-05-17T10:08:23.590Z,55.65
2019-05-17T10:09:24.901Z,52.39
2019-05-17T10:10:25.540Z,52.99
2019-05-17T10:11:25.655Z,57.34
2019-05-17T10:12:25.649Z,57.56
2019-05-17T10:13:27.747Z,53.5
2019-05-17T10:14:33.781Z,51.18
2019-05-17T10:15:30.028Z,51.08
2019-05-17T10:16:30.717Z,51.73
2019-05-17T10:17:29.581Z,51.13
2019-05-17T10:18:30.349Z,52.51
2019-05-17T10:19:30.775Z,52.67
2019-05-17T10:20:31.060Z,53.55
2019-05-17T10:21:31.352Z,54.49
2019-05-17T10:22:33.525Z,54.94
2019-05-17T10:23:35.531Z,55.4
2019-05-17T10:24:43.762Z,56.72
2019-05-17T10:25:34.734Z,58.23
2019-05-17T10:26:35.655Z,58.49
2019-05-17T10:27:35.545Z,58.2
2019-05-17T10:28:35.381Z,57.92
2019-05-17T10:29:35.248Z,57.98
2019-05-17T10:30:35.585Z,61.93
2019-05-17T10:31:36.256Z,62.22
2019-05-17T10:32:40.697Z,63.09
2019-05-17T10:33:37.317Z,63.18
2019-05-17T10:34:40.101Z,61.74
2019-05-17T10:35:40.562Z,62.8
2019-05-17T10:36:40.080Z,65.69
2019-05-17T10:37:40.862Z,65.78
2019-05-17T10:38:40.310Z,64.82
2019-05-17T10:39:41.643Z,64.95
2019-05-17T10:40:42.145Z,64.76
2019-05-17T10:41:42.073Z,62.06
2019-05-17T10:42:45.224Z,60.26
2019-05-17T10:43:45.438Z,61.13
2019-05-17T10:44:54.699Z,61.99
2019-05-17T10:45:45.693Z,60.38
2019-05-17T10:46:46.220Z,57.49
2019-05-17T10:47:46.370Z,59.45
2019-05-17T10:48:47.243Z,57.74
2019-05-17T10:49:49.603Z,57.54
2019-05-17T10:50:49.627Z,55.93
2019-05-17T10:51:49.447Z,59.7
2019-05-17T10:52:49.734Z,57.57
2019-05-17T10:53:51.227Z,55.65
2019-05-17T10:54:51.362Z,53.52
2019-05-17T10:55:52.104Z,52.14
2019-05-17T10:56:52.226Z,55.52
2019-05-17T10:57:55.290Z,61.19
2019-05-17T10:58:54.630Z,63.21
2019-05-17T10:59:55.201Z,61.28
2019-05-17T11:00:55.711Z,59.45
2019-05-17T11:01:56.180Z,58.39
2019-05-17T11:02:56.465Z,58.68
2019-05-17T11:03:55.663Z,57.62
2019-05-17T11:04:55.997Z,59.16
2019-05-17T11:05:56.700Z,58.55
2019-05-17T11:06:59.460Z,58.94
2019-05-17T11:07:59.731Z,59.23
2019-05-17T11:08:59.460Z,58.55
2019-05-17T11:10:00.286Z,55.73
2019-05-17T11:11:00.536Z,55.76
2019-05-17T11:11:59.953Z,56.43
2019-05-17T11:13:00.093Z,58.45
2019-05-17T11:14:00.222Z,59.55
2019-05-17T11:15:15.770Z,55.68
2019-05-17T11:16:00.971Z,53.27
2019-05-17T11:17:03.403Z,56.56
2019-05-17T11:18:02.813Z,58.9
2019-05-17T11:19:02.359Z,63.85
2019-05-17T11:20:03.141Z,62.02
2019-05-17T11:21:03.379Z,58.86
2019-05-17T11:22:04.402Z,54.51
2019-05-17T11:23:04.836Z,53.33
2019-05-17T11:24:05.278Z,53.33
2019-05-17T11:25:05.784Z,53.69
2019-05-17T11:26:06.779Z,55.27
2019-05-17T11:27:07.914Z,56.01
2019-05-17T11:28:08.637Z,56.3
2019-05-17T11:29:10.017Z,56.69
2019-05-17T11:30:10.836Z,56.57
2019-05-17T11:31:10.878Z,58.49
2019-05-17T11:32:11.601Z,58.47
2019-05-17T11:33:12.299Z,58.85
2019-05-17T11:34:13.047Z,60.03
2019-05-17T11:35:13.843Z,60.61
2019-05-17T11:36:14.573Z,61.19
2019-05-17T11:37:16.276Z,58.72
2019-05-17T11:38:16.234Z,58.52
2019-05-17T11:39:16.362Z,57.94
2019-05-17T11:40:16.793Z,57.75
2019-05-17T11:41:27.086Z,58.01
2019-05-17T11:42:18.261Z,60.61
2019-05-17T11:43:18.495Z,61.38
2019-05-17T11:44:20.304Z,61
2019-05-17T11:45:32.934Z,64.08
2019-05-17T11:46:33.887Z,61.1
2019-05-17T11:47:20.888Z,60.9
2019-05-17T11:48:22.526Z,59.65
2019-05-17T11:49:22.042Z,59.65
2019-05-17T11:50:23.114Z,57.82
2019-05-17T11:51:26.958Z,58.59
2019-05-17T11:52:24.986Z,60.13
2019-05-17T11:53:25.113Z,58.78
2019-05-17T11:54:26.209Z,58.2
2019-05-17T11:55:26.672Z,59.45
2019-05-17T11:56:27.435Z,58.2
2019-05-17T11:57:28.485Z,58.47
2019-05-17T11:58:28.644Z,59.23
2019-05-17T11:59:29.105Z,61.16
2019-05-17T12:00:29.321Z,61.65
2019-05-17T12:01:29.453Z,61.61
2019-05-17T12:02:31.319Z,62
2019-05-17T12:03:30.616Z,61.52
2019-05-17T12:04:31.045Z,61.04
2019-05-17T12:05:31.756Z,60.46
2019-05-17T12:06:32.466Z,59.11
2019-05-17T12:07:33.212Z,60.55
2019-05-17T12:08:33.635Z,59.59
2019-05-17T12:09:42.448Z,58.24
2019-05-17T12:10:34.278Z,57.47
2019-05-17T12:11:34.010Z,59.17
2019-05-17T12:12:34.136Z,58.98
2019-05-17T12:13:34.602Z,61.68
2019-05-17T12:14:34.881Z,58.7
2019-05-17T12:15:49.323Z,59.08
2019-05-17T12:16:36.321Z,60.62
2019-05-17T12:17:37.154Z,60.69
2019-05-17T12:18:37.875Z,59.92
2019-05-17T12:19:40.086Z,61.49
2019-05-17T12:20:39.741Z,59.94
2019-05-17T12:21:40.419Z,57.83
2019-05-17T12:22:40.312Z,58.18
2019-05-17T12:23:41.329Z,58.98
2019-05-17T12:24:41.389Z,62.35
2019-05-17T12:25:42.517Z,59.27
2019-05-17T12:26:47.253Z,60.24
2019-05-17T12:27:44.464Z,59.2
2019-05-17T12:28:44.322Z,57.67
2019-05-17T12:29:45.130Z,56.99
2019-05-17T12:30:44.697Z,57.86
2019-05-17T12:31:45.668Z,60.17
2019-05-17T12:32:46.219Z,60.27
2019-05-17T12:33:48.345Z,60.94
2019-05-17T12:34:48.893Z,58.63
2019-05-17T12:35:48.248Z,56.41
2019-05-17T12:36:49.995Z,56.7
2019-05-17T12:37:51.235Z,58.15
2019-05-17T12:38:51.285Z,56.6
2019-05-17T12:39:52.816Z,57.25
2019-05-17T12:40:52.893Z,58.4
2019-05-17T12:41:55.083Z,60.04
2019-05-17T12:42:54.103Z,59.47
2019-05-17T12:43:56.588Z,58.31
2019-05-17T12:44:56.387Z,58.37
2019-05-17T12:46:07.601Z,57.9
2019-05-17T12:46:56.610Z,57.7
2019-05-17T12:47:57.949Z,58.18
2019-05-17T12:49:01.768Z,59.24
2019-05-17T12:49:58.903Z,59.82
2019-05-17T12:51:00.391Z,59.15
2019-05-17T12:52:00.035Z,59.24
2019-05-17T12:53:00.677Z,58.57
2019-05-17T12:54:01.710Z,58.76
2019-05-17T12:55:02.464Z,58.57
2019-05-17T12:56:04.035Z,58.67
2019-05-17T12:57:04.869Z,59.12
2019-05-17T12:58:04.590Z,57.99
2019-05-17T12:59:05.477Z,58.18
2019-05-17T13:00:06.460Z,58.95
2019-05-17T13:01:08.110Z,61.65
2019-05-17T13:02:07.676Z,63.28
2019-05-17T13:03:08.870Z,60.69
2019-05-17T13:04:08.814Z,61.26
2019-05-17T13:05:09.510Z,59.15